San Antonio, Texas
Traffic Map
Current Weather Conditions
San Antonio, Texas
Clear
Clear
14°
Feels Like: 14°
Wind Chill: 14° Ceiling: Unl
Heat Index: 14° Visibility: 10mi
Dew Point: 11° Wind: 0mph
Humidity: 85% Direction: ° ()
Pressure: 29.64in Gusts: 0mph
Raw Report DataKSKF 230358Z AUTO 00000KT 10SM CLR 14/11 A2964 RMK AO2 SLP035 T01380114 $
Traffic Incident Summary
Active as of:
Severity:
Category:
InformationThere was an issue retrieving the traffic information for this location. Please try a different location or try again shortly.
Advertisements
Track Severe Weather on mobile